Time;durP1;ratioP1;P1;durP2;ratioP2;P2;SDS_P1;SDS_P2;PMS_P1;PMS_P2;Temp;Humidity;BMP_temperature;BMP_pressure;BME280_temperature;BME280_humidity;BME280_pressure;Samples;Min_cycle;Max_cycle;Signal;HPM_P1;HPM_P2
2023/06/01 00:00:10;;;;;;;14.50;7.63;;;;;;;15.98;62.27;102579.50;5090988;28;20042;-48
2023/06/01 00:02:35;;;;;;;12.90;7.25;;;;;;;15.69;62.32;102577.19;5091217;28;20406;-48
2023/06/01 00:05:01;;;;;;;15.35;8.07;;;;;;;15.50;63.19;102587.25;5091139;28;20127;-46
2023/06/01 00:07:29;;;;;;;15.20;7.90;;;;;;;15.50;62.99;102576.75;5091440;28;20040;-48
2023/06/01 00:09:55;;;;;;;14.38;7.95;;;;;;;15.72;62.37;102568.50;5092277;28;20138;-45
2023/06/01 00:12:20;;;;;;;15.82;7.97;;;;;;;15.94;61.24;102585.53;5092348;28;20776;-48
2023/06/01 00:14:45;;;;;;;13.82;7.18;;;;;;;15.74;62.34;102580.78;5091888;28;20085;-46
2023/06/01 00:17:11;;;;;;;13.68;7.35;;;;;;;15.87;61.67;102581.03;5091597;28;20032;-47
2023/06/01 00:19:38;;;;;;;13.15;7.43;;;;;;;16.05;61.06;102581.34;5092019;28;20089;-45
2023/06/01 00:22:04;;;;;;;13.88;7.50;;;;;;;15.92;61.20;102575.00;5091533;28;20143;-44
2023/06/01 00:24:29;;;;;;;12.70;7.07;;;;;;;16.29;60.48;102587.06;5091093;28;20562;-47
2023/06/01 00:26:54;;;;;;;12.95;6.75;;;;;;;16.21;60.56;102578.16;5092399;28;20504;-44
2023/06/01 00:29:20;;;;;;;11.88;6.47;;;;;;;16.08;61.02;102571.78;5091221;28;20505;-44
2023/06/01 00:31:46;;;;;;;12.20;6.20;;;;;;;15.91;61.66;102577.63;5091516;28;20087;-46
2023/06/01 00:34:12;;;;;;;9.52;5.88;;;;;;;16.21;60.64;102570.25;5091155;28;20028;-50
2023/06/01 00:36:37;;;;;;;11.48;6.18;;;;;;;16.43;59.94;102569.75;5091792;28;20036;-44
2023/06/01 00:39:03;;;;;;;10.23;5.90;;;;;;;16.16;60.57;102564.91;5091157;28;20065;-43
2023/06/01 00:41:30;;;;;;;12.13;5.30;;;;;;;16.27;60.13;102569.47;5091721;28;20028;-46
2023/06/01 00:43:55;;;;;;;12.88;6.82;;;;;;;16.06;60.49;102568.25;5091327;28;20055;-44
2023/06/01 00:46:21;;;;;;;12.93;6.03;;;;;;;15.84;61.18;102568.72;5091380;28;20032;-47
2023/06/01 00:48:47;;;;;;;13.23;5.97;;;;;;;15.99;60.98;102561.09;5092196;28;20488;-46
2023/06/01 00:51:14;;;;;;;12.65;6.03;;;;;;;15.72;62.00;102566.75;5090797;28;20024;-50
2023/06/01 00:53:41;;;;;;;9.90;5.43;;;;;;;15.95;61.10;102567.16;5090461;28;20032;-45
2023/06/01 00:56:07;;;;;;;11.15;5.55;;;;;;;15.78;61.24;102560.72;5090118;28;20038;-50
2023/06/01 00:58:33;;;;;;;11.93;5.75;;;;;;;16.26;60.35;102570.34;5090827;28;20044;-49
2023/06/01 01:00:58;;;;;;;10.20;5.82;;;;;;;16.26;60.33;102572.97;5091330;28;20032;-45
2023/06/01 01:03:25;;;;;;;11.10;5.43;;;;;;;15.87;61.24;102565.25;5091043;28;20035;-46
2023/06/01 01:06:02;;;;;;;10.00;5.40;;;;;;;16.32;60.03;102571.31;5090724;28;20138;-46
2023/06/01 01:08:51;;;;;;;9.40;5.53;;;;;;;16.04;60.20;102577.84;5090192;28;20073;-47
2023/06/01 01:11:21;;;;;;;8.65;5.47;;;;;;;16.17;60.09;102568.41;5089995;28;20440;-45
2023/06/01 01:13:49;;;;;;;12.10;6.20;;;;;;;16.21;59.81;102571.16;5089980;28;20028;-44
2023/06/01 01:16:28;;;;;;;10.30;6.18;;;;;;;16.11;60.28;102569.19;5090044;28;20036;-44
2023/06/01 01:19:04;;;;;;;12.60;6.70;;;;;;;16.30;59.57;102572.16;5090367;28;20317;-45
2023/06/01 01:21:33;;;;;;;14.13;6.28;;;;;;;16.21;59.60;102557.09;5089984;28;20048;-44
2023/06/01 01:24:21;;;;;;;12.82;6.70;;;;;;;16.18;59.98;102562.31;5089729;28;20032;-45
2023/06/01 01:27:02;;;;;;;16.98;7.50;;;;;;;16.09;59.95;102557.78;5090047;28;20032;-48
2023/06/01 01:29:31;;;;;;;14.18;7.10;;;;;;;16.09;60.40;102559.53;5089708;28;20039;-45
2023/06/01 01:32:00;;;;;;;13.50;6.90;;;;;;;16.21;60.08;102562.38;5089823;28;20123;-50
2023/06/01 01:34:27;;;;;;;13.18;7.32;;;;;;;16.16;60.16;102557.00;5089170;28;20402;-44
2023/06/01 01:36:52;;;;;;;13.55;6.82;;;;;;;16.51;59.20;102560.25;5090106;28;20036;-44
2023/06/01 01:39:18;;;;;;;14.10;7.18;;;;;;;16.35;59.82;102563.47;5089487;28;20406;-46
2023/06/01 01:41:43;;;;;;;11.52;6.60;;;;;;;16.46;59.73;102569.81;5089994;28;20040;-46
2023/06/01 01:44:08;;;;;;;12.15;7.47;;;;;;;16.13;60.23;102569.25;5089475;28;20494;-46
2023/06/01 01:46:47;;;;;;;14.48;6.93;;;;;;;16.49;59.30;102571.59;5090496;28;20085;-44
2023/06/01 01:49:40;;;;;;;11.70;6.95;;;;;;;16.12;60.67;102567.47;5090031;28;20122;-49
2023/06/01 01:52:12;;;;;;;13.95;7.43;;;;;;;16.36;59.76;102565.25;5090023;28;20032;-45
2023/06/01 01:54:43;;;;;;;10.82;6.63;;;;;;;16.21;60.63;102571.16;5089771;28;20048;-44
2023/06/01 01:57:09;;;;;;;15.40;7.40;;;;;;;16.31;59.97;102564.28;5091154;28;20048;-44
2023/06/01 01:59:35;;;;;;;11.55;6.93;;;;;;;16.28;59.82;102561.63;5092522;28;20426;-43
2023/06/01 02:02:02;;;;;;;13.82;7.10;;;;;;;16.24;59.80;102560.66;5094386;28;20112;-48
2023/06/01 02:04:28;;;;;;;13.82;7.20;;;;;;;16.07;60.56;102561.22;5094910;28;20055;-49
2023/06/01 02:06:53;;;;;;;14.15;7.03;;;;;;;15.78;61.41;102555.47;5096929;28;20089;-45
2023/06/01 02:09:18;;;;;;;15.27;7.07;;;;;;;15.97;60.59;102554.06;5096601;28;20044;-44
2023/06/01 02:11:44;;;;;;;11.95;7.18;;;;;;;16.30;59.38;102559.00;5097529;28;20043;-44
2023/06/01 02:14:09;;;;;;;14.65;7.00;;;;;;;16.22;59.44;102559.75;5094184;28;20036;-45
2023/06/01 02:16:35;;;;;;;13.93;6.97;;;;;;;15.98;60.02;102555.81;5093791;28;20490;-44
2023/06/01 02:19:02;;;;;;;15.82;6.95;;;;;;;16.16;59.71;102553.53;5093151;28;20036;-48
2023/06/01 02:21:28;;;;;;;15.93;7.15;;;;;;;15.97;60.32;102551.41;5093888;28;20040;-48
2023/06/01 02:23:53;;;;;;;11.77;6.50;;;;;;;16.10;59.76;102545.53;5093188;28;20058;-46
2023/06/01 02:26:18;;;;;;;10.05;6.38;;;;;;;16.02;60.25;102542.75;5092976;28;20066;-45
2023/06/01 02:28:44;;;;;;;12.13;6.90;;;;;;;15.97;59.68;102543.53;5093484;28;20070;-46
2023/06/01 02:31:10;;;;;;;11.80;6.53;;;;;;;15.90;60.45;102545.16;5092981;28;20509;-51
2023/06/01 02:33:35;;;;;;;13.95;6.90;;;;;;;15.86;60.08;102550.34;5093214;28;20089;-50
2023/06/01 02:36:01;;;;;;;14.50;7.10;;;;;;;15.80;60.17;102545.81;5093392;28;20386;-47
2023/06/01 02:38:27;;;;;;;13.77;6.82;;;;;;;15.59;61.10;102545.44;5093321;28;20058;-46
2023/06/01 02:40:52;;;;;;;13.40;6.75;;;;;;;15.69;61.10;102545.63;5093205;28;20047;-49
2023/06/01 02:43:18;;;;;;;11.23;6.50;;;;;;;15.50;60.80;102537.31;5092434;28;20032;-50
2023/06/01 02:45:43;;;;;;;13.00;6.53;;;;;;;15.66;60.53;102548.22;5089686;28;20521;-45
2023/06/01 02:48:09;;;;;;;12.90;6.80;;;;;;;15.65;60.67;102537.66;5092563;28;20123;-44
2023/06/01 02:50:35;;;;;;;11.35;6.70;;;;;;;15.63;60.48;102537.63;5093284;28;20039;-50
2023/06/01 02:53:00;;;;;;;13.52;6.32;;;;;;;15.78;60.12;102537.03;5091927;28;20032;-49
2023/06/01 02:55:25;;;;;;;12.27;6.50;;;;;;;15.63;60.69;102535.00;5092869;28;20135;-47
2023/06/01 02:57:50;;;;;;;12.63;6.75;;;;;;;15.13;61.87;102531.31;5092498;28;20040;-47
2023/06/01 03:00:17;;;;;;;13.68;6.75;;;;;;;15.43;61.24;102538.94;5092101;28;20028;-46
2023/06/01 03:02:45;;;;;;;12.15;6.43;;;;;;;15.59;60.86;102535.81;5092270;28;20036;-45
2023/06/01 03:05:15;;;;;;;13.30;6.57;;;;;;;15.37;61.38;102538.81;5092253;28;20039;-46
2023/06/01 03:07:44;;;;;;;12.63;6.65;;;;;;;15.78;60.37;102539.69;5092405;28;20039;-49
2023/06/01 03:10:10;;;;;;;12.43;6.60;;;;;;;15.64;60.24;102530.63;5092143;28;20456;-49
2023/06/01 03:12:36;;;;;;;12.05;6.35;;;;;;;15.57;61.12;102534.00;5091191;28;20375;-48
2023/06/01 03:15:02;;;;;;;15.65;6.88;;;;;;;15.60;60.83;102537.59;5091715;28;20466;-47
2023/06/01 03:17:27;;;;;;;12.82;6.95;;;;;;;15.55;61.16;102538.38;5092042;28;20047;-50
2023/06/01 03:19:52;;;;;;;13.07;6.70;;;;;;;15.73;60.66;102547.50;5092142;28;20035;-46
2023/06/01 03:22:18;;;;;;;13.38;6.68;;;;;;;15.70;60.77;102544.78;5091988;28;20034;-47
2023/06/01 03:24:43;;;;;;;11.57;6.75;;;;;;;16.01;60.21;102543.59;5091890;28;20032;-46
2023/06/01 03:27:10;;;;;;;14.13;7.13;;;;;;;15.80;60.38;102544.09;5091680;28;20242;-45
2023/06/01 03:29:36;;;;;;;13.95;6.60;;;;;;;15.92;60.63;102542.56;5092034;28;20043;-49
2023/06/01 03:32:01;;;;;;;12.30;6.97;;;;;;;15.58;61.53;102544.56;5091659;28;20028;-44
2023/06/01 03:34:27;;;;;;;15.23;7.80;;;;;;;16.01;59.97;102547.97;5091360;28;20525;-45
2023/06/01 03:36:52;;;;;;;11.98;7.22;;;;;;;15.98;59.91;102547.94;5092270;28;20036;-51
2023/06/01 03:39:18;;;;;;;13.27;7.20;;;;;;;15.76;60.05;102542.28;5091438;28;20642;-46
2023/06/01 03:41:44;;;;;;;13.48;7.22;;;;;;;15.66;60.31;102542.97;5091976;28;20447;-44
2023/06/01 03:44:10;;;;;;;10.63;7.20;;;;;;;16.13;59.10;102549.06;5091214;28;20036;-45
2023/06/01 03:46:36;;;;;;;11.23;6.13;;;;;;;15.82;60.34;102554.66;5091762;28;20040;-44
2023/06/01 03:49:01;;;;;;;11.48;6.57;;;;;;;15.61;60.26;102547.25;5091009;28;20095;-47
2023/06/01 03:51:27;;;;;;;13.82;6.60;;;;;;;15.37;60.65;102544.06;5090368;28;20108;-46
2023/06/01 03:53:52;;;;;;;12.48;6.97;;;;;;;15.70;60.13;102544.78;5091212;28;20494;-44
2023/06/01 03:56:19;;;;;;;12.98;6.80;;;;;;;15.88;59.59;102536.34;5091496;28;20035;-47
2023/06/01 03:58:44;;;;;;;15.50;7.15;;;;;;;15.89;59.55;102545.13;5091311;28;20040;-49
2023/06/01 04:01:11;;;;;;;12.15;6.80;;;;;;;16.13;59.13;102543.81;5091199;28;20101;-48
2023/06/01 04:03:37;;;;;;;15.30;7.25;;;;;;;15.86;59.98;102550.34;5090928;28;20040;-45
2023/06/01 04:06:04;;;;;;;15.20;7.05;;;;;;;16.15;59.36;102547.38;5089899;28;20035;-45
2023/06/01 04:08:30;;;;;;;15.35;7.25;;;;;;;16.28;59.11;102543.19;5091431;28;20059;-45
2023/06/01 04:10:55;;;;;;;14.90;7.45;;;;;;;16.22;59.26;102543.94;5091105;28;20051;-46
2023/06/01 04:13:21;;;;;;;13.20;7.18;;;;;;;16.15;59.50;102554.38;5090266;28;20474;-45
2023/06/01 04:15:46;;;;;;;14.02;7.35;;;;;;;15.88;60.72;102546.88;5091189;28;20113;-51
2023/06/01 04:18:12;;;;;;;13.50;7.60;;;;;;;16.33;59.57;102540.63;5090920;28;20475;-47
2023/06/01 04:20:37;;;;;;;13.18;7.47;;;;;;;16.16;59.62;102546.47;5091032;28;20060;-45
2023/06/01 04:23:02;;;;;;;14.48;7.15;;;;;;;16.21;59.36;102547.47;5089007;28;20462;-49
2023/06/01 04:25:28;;;;;;;14.82;6.90;;;;;;;16.03;59.01;102557.69;5090764;28;20043;-44
2023/06/01 04:27:54;;;;;;;11.13;6.28;;;;;;;15.86;59.00;102552.97;5089744;28;20043;-46
2023/06/01 04:30:20;;;;;;;11.32;6.22;;;;;;;15.95;58.70;102548.75;5090460;28;20099;-46
2023/06/01 04:32:47;;;;;;;15.00;6.53;;;;;;;15.77;59.66;102548.41;5090784;28;20097;-45
2023/06/01 04:35:14;;;;;;;11.88;6.05;;;;;;;15.77;59.82;102545.78;5090622;28;20039;-45
2023/06/01 04:37:40;;;;;;;11.05;5.93;;;;;;;15.78;59.61;102548.47;5090973;28;20059;-51
2023/06/01 04:40:08;;;;;;;12.13;6.18;;;;;;;16.26;58.21;102550.16;5090448;28;20059;-47
2023/06/01 04:42:38;;;;;;;9.95;5.85;;;;;;;15.85;58.31;102545.94;5090130;28;20096;-45
2023/06/01 04:45:07;;;;;;;13.27;6.70;;;;;;;16.04;58.54;102540.16;5090422;28;20085;-53
2023/06/01 04:47:36;;;;;;;13.20;6.60;;;;;;;16.50;57.49;102542.66;5090442;28;20036;-48
2023/06/01 04:50:01;;;;;;;10.95;6.10;;;;;;;16.67;56.94;102549.97;5090170;28;20728;-48
2023/06/01 04:52:27;;;;;;;14.52;7.00;;;;;;;16.44;57.08;102558.38;5090384;28;20122;-46
2023/06/01 04:54:53;;;;;;;14.32;6.88;;;;;;;16.44;57.33;102553.09;5089963;28;20105;-45
2023/06/01 04:57:18;;;;;;;15.60;6.50;;;;;;;16.55;57.53;102554.16;5089630;28;20047;-48
2023/06/01 04:59:44;;;;;;;10.13;6.20;;;;;;;16.93;56.62;102552.13;5090361;28;20555;-49
2023/06/01 05:02:10;;;;;;;11.20;6.28;;;;;;;16.98;56.46;102550.44;5089832;28;20058;-47
2023/06/01 05:04:35;;;;;;;13.57;6.90;;;;;;;16.14;58.79;102556.13;5090119;28;20032;-47
2023/06/01 05:07:01;;;;;;;14.25;7.00;;;;;;;16.57;58.02;102552.44;5090140;28;20036;-52
2023/06/01 05:09:26;;;;;;;13.48;7.57;;;;;;;16.38;58.31;102560.00;5090095;28;20117;-47
2023/06/01 05:11:52;;;;;;;12.35;7.65;;;;;;;16.15;58.95;102554.38;5090483;28;20399;-49
2023/06/01 05:14:17;;;;;;;13.52;7.47;;;;;;;16.41;57.61;102554.78;5087178;28;20047;-44
2023/06/01 05:16:43;;;;;;;15.73;7.88;;;;;;;16.15;58.46;102557.00;5090146;28;20036;-44
2023/06/01 05:19:08;;;;;;;13.68;8.20;;;;;;;16.42;57.28;102551.28;5089778;28;20036;-47
2023/06/01 05:21:33;;;;;;;16.15;8.27;;;;;;;16.06;58.32;102556.81;5090840;28;20562;-49
2023/06/01 05:23:59;;;;;;;14.60;8.02;;;;;;;16.34;57.77;102556.47;5090518;28;20032;-49
2023/06/01 05:26:25;;;;;;;12.38;8.07;;;;;;;16.42;57.24;102548.66;5089624;28;20398;-43
2023/06/01 05:28:50;;;;;;;17.40;8.20;;;;;;;16.76;56.55;102561.53;5089960;28;20036;-47
2023/06/01 05:31:16;;;;;;;14.52;8.10;;;;;;;16.83;56.06;102557.25;5089702;28;20410;-47
2023/06/01 05:33:41;;;;;;;13.70;7.95;;;;;;;16.44;56.86;102553.09;5089708;28;20414;-48
2023/06/01 05:36:07;;;;;;;15.80;8.13;;;;;;;16.50;56.91;102550.56;5089698;28;20032;-48
2023/06/01 05:38:32;;;;;;;14.90;8.38;;;;;;;16.57;56.57;102559.44;5088932;28;20043;-49
2023/06/01 05:40:57;;;;;;;14.05;8.48;;;;;;;16.90;55.94;102553.81;5089705;28;20722;-45
2023/06/01 05:43:23;;;;;;;17.30;8.65;;;;;;;16.70;56.42;102545.66;5089158;28;20032;-49
2023/06/01 05:45:48;;;;;;;14.55;7.88;;;;;;;17.06;56.15;102553.16;5089857;28;20036;-45
2023/06/01 05:48:14;;;;;;;17.33;8.95;;;;;;;17.11;55.94;102548.84;5089061;28;20055;-45
2023/06/01 05:50:40;;;;;;;18.85;8.75;;;;;;;17.34;55.64;102549.13;5089945;28;20142;-43
2023/06/01 05:53:06;;;;;;;18.45;8.85;;;;;;;17.25;55.68;102542.00;5088872;28;20413;-45
2023/06/01 05:55:32;;;;;;;15.32;8.55;;;;;;;17.01;56.11;102555.75;5089560;28;20039;-46
2023/06/01 05:57:57;;;;;;;14.63;8.80;;;;;;;17.22;55.85;102552.50;5089367;28;20597;-48
2023/06/01 06:00:23;;;;;;;15.70;9.20;;;;;;;17.17;55.64;102550.66;5089006;28;20067;-46
2023/06/01 06:02:48;;;;;;;13.63;9.07;;;;;;;17.57;54.79;102545.00;5089282;28;20047;-45
2023/06/01 06:05:14;;;;;;;17.55;9.85;;;;;;;17.46;54.57;102549.28;5089265;28;20040;-49
2023/06/01 06:07:39;;;;;;;17.20;10.23;;;;;;;17.66;54.32;102547.78;5091309;28;20024;-50
2023/06/01 06:10:06;;;;;;;17.42;10.05;;;;;;;17.89;54.01;102549.75;5090692;28;20047;-44
2023/06/01 06:12:31;;;;;;;17.58;10.40;;;;;;;17.59;54.43;102552.94;5092030;28;20028;-44
2023/06/01 06:14:56;;;;;;;19.65;9.73;;;;;;;17.56;54.13;102547.63;5091198;28;20100;-44
2023/06/01 06:17:22;;;;;;;17.83;10.20;;;;;;;17.29;54.20;102554.34;5091074;28;20120;-49
2023/06/01 06:19:48;;;;;;;16.98;10.07;;;;;;;17.25;54.46;102557.81;5091258;28;20128;-44
2023/06/01 06:22:14;;;;;;;21.85;10.38;;;;;;;17.37;54.21;102544.78;5091094;28;20048;-44
2023/06/01 06:24:39;;;;;;;16.17;9.63;;;;;;;17.67;53.81;102546.03;5090251;28;20156;-47
2023/06/01 06:27:05;;;;;;;16.48;9.48;;;;;;;17.39;54.12;102536.88;5089951;28;20126;-47
2023/06/01 06:29:31;;;;;;;20.65;10.10;;;;;;;17.45;53.75;102537.84;5090548;28;20043;-47
2023/06/01 06:31:56;;;;;;;18.08;9.82;;;;;;;17.67;53.35;102540.75;5089599;28;20028;-49
2023/06/01 06:34:22;;;;;;;17.27;9.95;;;;;;;17.36;53.71;102550.03;5088406;28;20040;-45
2023/06/01 06:36:47;;;;;;;19.00;9.57;;;;;;;17.89;53.12;102544.50;5089096;28;20032;-45
2023/06/01 06:39:13;;;;;;;17.48;9.75;;;;;;;17.83;53.46;102545.31;5088401;28;20173;-46
2023/06/01 06:41:40;;;;;;;17.67;9.52;;;;;;;17.80;53.29;102542.66;5088979;28;20603;-47
2023/06/01 06:44:06;;;;;;;18.95;10.25;;;;;;;17.72;53.31;102555.75;5088197;28;20032;-47
2023/06/01 06:46:31;;;;;;;19.80;10.13;;;;;;;17.73;52.75;102552.25;5089038;28;20047;-45
2023/06/01 06:48:56;;;;;;;16.33;9.95;;;;;;;17.73;53.27;102557.53;5090423;28;20043;-50
2023/06/01 06:51:22;;;;;;;14.88;9.27;;;;;;;17.78;52.92;102561.09;5091209;28;20043;-50
2023/06/01 06:53:47;;;;;;;18.50;10.40;;;;;;;17.37;53.70;102559.72;5092303;28;20028;-44
2023/06/01 06:56:12;;;;;;;17.95;10.15;;;;;;;17.80;52.92;102550.56;5091238;28;20067;-49
2023/06/01 06:58:38;;;;;;;21.13;9.98;;;;;;;18.10;51.63;102557.91;5092346;28;20044;-45
2023/06/01 07:01:05;;;;;;;20.58;9.85;;;;;;;17.69;53.39;102557.47;5092333;28;20152;-46
2023/06/01 07:03:33;;;;;;;18.92;9.57;;;;;;;18.07;52.57;102571.94;5092113;28;20063;-49
2023/06/01 07:05:59;;;;;;;18.38;10.00;;;;;;;18.05;52.11;102572.81;5092629;28;20398;-43
2023/06/01 07:08:25;;;;;;;15.32;9.48;;;;;;;18.45;50.77;102568.75;5092089;28;20115;-47
2023/06/01 07:10:52;;;;;;;17.50;9.13;;;;;;;18.55;50.93;102573.25;5092739;28;20087;-45
2023/06/01 07:13:17;;;;;;;15.68;9.45;;;;;;;18.50;50.17;102562.63;5091573;28;20436;-43
2023/06/01 07:15:42;;;;;;;15.82;8.93;;;;;;;18.49;50.31;102568.78;5092325;28;20119;-49
2023/06/01 07:18:08;;;;;;;17.38;9.43;;;;;;;18.81;49.83;102566.41;5091468;28;20040;-44
2023/06/01 07:20:33;;;;;;;16.80;8.68;;;;;;;19.69;47.00;102563.31;5092555;28;20059;-45
2023/06/01 07:22:59;;;;;;;16.42;8.45;;;;;;;19.87;47.20;102558.06;5092441;28;20032;-45
2023/06/01 07:25:24;;;;;;;19.40;8.70;;;;;;;18.53;50.23;102565.31;5092561;28;20394;-46
2023/06/01 07:27:50;;;;;;;16.60;8.88;;;;;;;18.90;49.54;102576.16;5094061;28;20070;-47
2023/06/01 07:30:16;;;;;;;16.40;9.43;;;;;;;19.13;48.71;102571.88;5093449;28;20064;-50
2023/06/01 07:32:42;;;;;;;16.00;9.80;;;;;;;18.53;49.25;102578.53;5093405;28;20024;-44
2023/06/01 07:35:08;;;;;;;16.20;9.52;;;;;;;19.08;48.53;102575.38;5092550;28;20039;-49
2023/06/01 07:37:34;;;;;;;15.63;8.73;;;;;;;18.78;49.43;102579.63;5093518;28;20063;-44
2023/06/01 07:39:59;;;;;;;13.77;8.05;;;;;;;19.10;48.71;102574.50;5093275;28;20070;-45
2023/06/01 07:42:24;;;;;;;17.42;8.75;;;;;;;18.67;49.35;102578.63;5092813;28;20495;-45
2023/06/01 07:44:50;;;;;;;13.02;8.07;;;;;;;18.59;48.89;102572.44;5089971;28;20044;-43
2023/06/01 07:47:16;;;;;;;16.52;8.40;;;;;;;18.64;48.57;102568.94;5091553;28;20035;-46
2023/06/01 07:49:41;;;;;;;17.48;8.55;;;;;;;18.95;48.31;102575.31;5091971;28;20047;-46
2023/06/01 07:52:07;;;;;;;14.82;8.35;;;;;;;19.32;47.44;102572.84;5091076;28;20032;-50
2023/06/01 07:54:35;;;;;;;14.15;8.45;;;;;;;19.14;47.89;102565.72;5090786;28;20040;-45
2023/06/01 07:57:02;;;;;;;16.40;8.55;;;;;;;19.23;47.84;102565.75;5091101;28;20044;-45
2023/06/01 07:59:29;;;;;;;12.23;7.88;;;;;;;18.94;48.10;102578.81;5091114;28;20044;-45
2023/06/01 08:01:55;;;;;;;14.45;8.52;;;;;;;19.24;47.63;102567.53;5090889;28;20056;-48
2023/06/01 08:04:21;;;;;;;17.60;8.40;;;;;;;19.09;47.02;102562.13;5090788;28;20166;-45
2023/06/01 08:06:52;;;;;;;14.25;8.07;;;;;;;19.75;46.48;102565.97;5091923;28;20131;-45
2023/06/01 08:09:19;;;;;;;13.43;8.57;;;;;;;19.92;46.47;102566.88;5090776;28;20040;-45
2023/06/01 08:11:45;;;;;;;13.13;8.38;;;;;;;20.19;44.93;102569.53;5091269;28;20161;-44
2023/06/01 08:14:11;;;;;;;12.07;7.50;;;;;;;21.04;43.42;102552.72;5090305;28;20123;-45
2023/06/01 08:16:36;;;;;;;12.30;7.30;;;;;;;21.26;43.00;102554.41;5091064;28;20062;-47
2023/06/01 08:19:03;;;;;;;13.07;6.90;;;;;;;21.61;42.10;102559.53;5090441;28;20533;-54
2023/06/01 08:21:28;;;;;;;11.05;6.82;;;;;;;22.15;40.14;102557.44;5090890;28;20452;-49
2023/06/01 08:23:56;;;;;;;11.30;6.80;;;;;;;23.00;38.70;102554.88;5090810;28;20036;-44
2023/06/01 08:26:23;;;;;;;13.23;6.55;;;;;;;23.75;36.10;102551.25;5090695;28;20060;-46
2023/06/01 08:28:51;;;;;;;12.55;6.28;;;;;;;24.08;36.59;102547.22;5090837;28;20028;-52
2023/06/01 08:31:25;;;;;;;12.88;6.50;;;;;;;23.63;36.22;102554.09;5090426;28;20032;-48
2023/06/01 08:33:51;;;;;;;10.52;6.72;;;;;;;22.13;39.66;102541.53;5090537;28;20039;-48
2023/06/01 08:36:18;;;;;;;12.07;7.10;;;;;;;21.96;39.70;102554.03;5086996;28;20421;-52
2023/06/01 08:38:44;;;;;;;12.63;7.32;;;;;;;21.53;40.93;102547.22;5090535;28;20047;-45
2023/06/01 08:41:40;;;;;;;11.90;7.22;;;;;;;21.08;41.55;102545.63;5090291;28;20032;-44
2023/06/01 08:44:08;;;;;;;13.13;6.85;;;;;;;21.59;41.95;102547.19;5089832;28;20036;-45
2023/06/01 08:46:34;;;;;;;12.23;6.00;;;;;;;21.36;41.65;102545.53;5090734;28;20119;-47
2023/06/01 08:49:01;;;;;;;15.07;6.60;;;;;;;21.41;42.54;102545.50;5090641;28;20135;-46
2023/06/01 08:51:26;;;;;;;11.25;6.65;;;;;;;20.73;43.66;102551.91;5090512;28;20032;-46
2023/06/01 08:53:57;;;;;;;12.75;6.30;;;;;;;20.84;43.25;102547.47;5090339;28;20036;-47
2023/06/01 08:56:22;;;;;;;9.43;6.43;;;;;;;21.19;42.18;102547.38;5091305;28;20036;-51
2023/06/01 08:58:49;;;;;;;13.85;7.20;;;;;;;21.76;42.08;102543.53;5089766;28;20050;-48
2023/06/01 09:01:20;;;;;;;10.32;6.70;;;;;;;21.53;41.20;102544.56;5090398;28;20040;-47
2023/06/01 09:03:46;;;;;;;12.02;6.65;;;;;;;21.24;41.79;102540.28;5088372;28;20096;-51
2023/06/01 09:06:11;;;;;;;12.45;6.95;;;;;;;21.70;41.55;102532.97;5089910;28;20577;-44
2023/06/01 09:08:37;;;;;;;12.98;7.00;;;;;;;20.43;43.97;102538.69;5089997;28;20125;-45
2023/06/01 09:11:02;;;;;;;13.10;7.05;;;;;;;21.16;43.75;102528.84;5088950;28;20056;-46
2023/06/01 09:13:35;;;;;;;12.82;6.80;;;;;;;21.66;42.52;102533.84;5089554;28;20047;-47
2023/06/01 09:16:01;;;;;;;14.60;6.65;;;;;;;21.73;41.30;102524.97;5088167;28;20032;-46
2023/06/01 09:18:26;;;;;;;13.25;6.82;;;;;;;20.88;42.52;102530.66;5089774;28;20036;-44
2023/06/01 09:20:53;;;;;;;10.55;6.47;;;;;;;21.11;42.08;102529.66;5090325;28;20410;-46
2023/06/01 09:23:28;;;;;;;8.82;6.15;;;;;;;20.76;42.59;102524.50;5089083;28;20062;-45
2023/06/01 09:26:11;;;;;;;12.93;7.10;;;;;;;20.69;43.22;102528.03;5089925;28;20044;-44
2023/06/01 09:28:55;;;;;;;12.20;6.30;;;;;;;20.93;42.99;102520.91;5089528;28;20036;-45
2023/06/01 09:31:41;;;;;;;10.93;6.28;;;;;;;20.41;44.71;102525.44;5089457;28;20119;-46
2023/06/01 09:34:08;;;;;;;13.15;6.30;;;;;;;20.12;45.05;102519.25;5089035;28;20028;-45
2023/06/01 09:36:33;;;;;;;10.10;6.25;;;;;;;20.69;43.19;102520.09;5090404;28;20642;-44
2023/06/01 09:39:14;;;;;;;11.77;6.35;;;;;;;20.59;43.23;102524.53;5089831;28;20448;-44
2023/06/01 09:41:52;;;;;;;12.57;6.15;;;;;;;20.57;43.83;102521.00;5089902;28;20051;-45
2023/06/01 09:44:36;;;;;;;9.18;5.50;;;;;;;20.48;44.52;102524.56;5089100;28;20043;-49
2023/06/01 09:47:03;;;;;;;10.97;6.47;;;;;;;20.18;44.46;102520.13;5089205;28;20554;-45
2023/06/01 09:49:31;;;;;;;12.40;5.47;;;;;;;20.65;44.14;102530.72;5089754;28;20028;-47
2023/06/01 09:52:05;;;;;;;9.45;5.50;;;;;;;20.49;44.08;102522.81;5089951;28;20100;-47
2023/06/01 09:54:31;;;;;;;;;;;;;;;20.91;42.58;102527.13;5089527;28;20040;-49
2023/06/01 09:56:58;;;;;;;13.55;6.38;;;;;;;20.16;43.69;102524.53;5089793;28;20025;-50
2023/06/01 09:59:25;;;;;;;9.52;5.95;;;;;;;20.71;42.98;102508.63;5089203;28;20052;-45
2023/06/01 10:01:53;;;;;;;9.90;6.03;;;;;;;21.21;42.23;102504.94;5089933;28;20040;-49
2023/06/01 10:04:24;;;;;;;11.73;6.05;;;;;;;21.21;43.36;102505.81;5088964;28;20032;-47
2023/06/01 10:06:53;;;;;;;9.40;5.50;;;;;;;21.12;43.20;102499.63;5089811;28;20521;-46
2023/06/01 10:09:21;;;;;;;10.30;5.85;;;;;;;20.81;44.05;102517.41;5089291;28;20036;-49
2023/06/01 10:11:48;;;;;;;8.80;5.70;;;;;;;20.98;43.90;102510.31;5090198;28;20028;-45
2023/06/01 10:14:14;;;;;;;10.20;6.15;;;;;;;21.28;42.58;102499.59;5089193;28;20066;-47
2023/06/01 10:16:40;;;;;;;10.77;6.20;;;;;;;21.16;42.21;102504.97;5089948;28;20039;-47
2023/06/01 10:19:07;;;;;;;11.82;5.53;;;;;;;20.97;42.51;102508.53;5088774;28;20036;-48
2023/06/01 10:21:33;;;;;;;10.88;6.05;;;;;;;20.67;43.88;102509.50;5087238;28;20059;-44
2023/06/01 10:23:58;;;;;;;14.50;6.20;;;;;;;20.61;43.31;102501.59;5091816;28;20502;-44
2023/06/01 10:26:27;;;;;;;8.68;5.60;;;;;;;20.86;42.43;102500.59;5093227;28;20490;-47
2023/06/01 10:28:53;;;;;;;10.30;5.55;;;;;;;20.51;42.65;102499.81;5092923;28;20036;-44
2023/06/01 10:31:38;;;;;;;11.45;5.60;;;;;;;21.17;42.68;102497.84;5092494;28;20040;-46
2023/06/01 10:34:05;;;;;;;11.32;5.80;;;;;;;21.05;42.12;102489.03;5092282;28;20044;-45
2023/06/01 10:36:52;;;;;;;9.95;5.40;;;;;;;21.59;41.23;102499.41;5093204;28;20032;-47
2023/06/01 10:39:24;;;;;;;11.77;5.68;;;;;;;21.31;42.49;102490.72;5092015;28;20047;-44
2023/06/01 10:41:50;;;;;;;9.98;5.93;;;;;;;21.28;41.94;102485.44;5093206;28;20044;-45
2023/06/01 10:44:40;;;;;;;10.50;4.97;;;;;;;21.06;44.84;102505.84;5091656;28;20028;-44
2023/06/01 10:47:11;;;;;;;8.55;5.70;;;;;;;21.29;43.52;102484.53;5091945;28;20031;-46
2023/06/01 10:50:05;;;;;;;9.75;4.97;;;;;;;21.12;44.12;102491.66;5092376;28;20518;-46
2023/06/01 10:52:34;;;;;;;11.18;4.60;;;;;;;21.01;45.25;102495.25;5090806;28;20060;-45
2023/06/01 10:55:05;;;;;;;12.10;4.93;;;;;;;21.11;44.60;102488.13;5092214;28;20036;-49
2023/06/01 10:57:31;;;;;;;12.02;5.43;;;;;;;20.49;45.10;102488.34;5092125;28;20063;-48
2023/06/01 11:00:12;;;;;;;10.90;5.70;;;;;;;20.12;46.65;102492.78;5092384;28;20490;-49
2023/06/01 11:02:57;;;;;;;10.48;4.90;;;;;;;20.23;46.81;102488.34;5086939;28;20410;-46
2023/06/01 11:05:48;;;;;;;12.13;4.65;;;;;;;20.19;47.27;102491.88;5091915;28;20513;-46
2023/06/01 11:08:22;;;;;;;11.27;4.60;;;;;;;20.23;47.21;102491.00;5092626;28;20031;-51
2023/06/01 11:10:50;;;;;;;11.70;4.82;;;;;;;20.73;45.28;102488.28;5092346;28;20028;-48
2023/06/01 11:13:21;;;;;;;13.15;4.80;;;;;;;19.67;48.30;102489.22;5091588;28;20072;-45
2023/06/01 11:16:18;;;;;;;10.40;4.60;;;;;;;19.94;47.46;102484.84;5091927;28;20081;-44
2023/06/01 11:18:49;;;;;;;12.00;4.50;;;;;;;20.36;46.54;102487.50;5091575;28;20036;-47